Time;durP1;ratioP1;P1;durP2;ratioP2;P2;SDS_P1;SDS_P2;PMS_P1;PMS_P2;Temp;Humidity;BMP_temperature;BMP_pressure;BME280_temperature;BME280_humidity;BME280_pressure;Samples;Min_cycle;Max_cycle;Signal;HPM_P1;HPM_P2
2022/09/02 00:01:50;;;;;;;12.18;9.57;;;12.50;1.00;;;;;;5033097;28;20173;-89
2022/09/02 00:04:38;;;;;;;10.43;9.20;;;12.40;1.00;;;;;;5035152;28;20487;-91
2022/09/02 00:07:27;;;;;;;11.80;9.80;;;12.30;1.00;;;;;;5039888;28;20615;-90
2022/09/02 00:10:25;;;;;;;9.80;8.75;;;12.20;1.00;;;;;;5029810;28;20046;-90
2022/09/02 00:13:17;;;;;;;11.30;9.23;;;12.00;1.00;;;;;;5028185;28;20121;-89
2022/09/02 00:16:05;;;;;;;12.07;10.77;;;11.90;16.30;;;;;;5008223;28;20172;-90
2022/09/02 00:18:56;;;;;;;11.90;10.50;;;11.90;93.40;;;;;;5025556;28;20056;-90
2022/09/02 00:21:47;;;;;;;12.50;10.20;;;11.80;99.90;;;;;;5035069;28;20131;-90
2022/09/02 00:24:37;;;;;;;13.52;9.88;;;11.60;99.90;;;;;;5024441;28;20139;-89
2022/09/02 00:27:25;;;;;;;13.77;11.02;;;11.50;99.90;;;;;;5035051;28;20392;-91
2022/09/02 00:30:15;;;;;;;14.05;11.20;;;11.40;99.90;;;;;;5036164;28;20049;-90
2022/09/02 00:33:04;;;;;;;15.15;11.25;;;11.30;99.90;;;;;;5015307;28;20046;-90
2022/09/02 00:35:52;;;;;;;12.68;10.10;;;11.20;99.90;;;;;;5024139;28;20088;-84
2022/09/02 00:38:41;;;;;;;13.68;10.43;;;11.10;99.90;;;;;;5041200;28;20070;-84
2022/09/02 00:41:29;;;;;;;20.75;11.50;;;11.10;99.90;;;;;;5052230;28;20041;-90
2022/09/02 00:44:18;;;;;;;15.77;11.93;;;11.20;99.90;;;;;;5047358;28;20053;-89
2022/09/02 00:47:08;;;;;;;15.27;12.25;;;11.10;99.90;;;;;;5027392;28;20135;-90
2022/09/02 00:49:57;;;;;;;14.48;12.90;;;11.10;1.00;;;;;;5031223;28;20163;-89
2022/09/02 00:52:48;;;;;;;14.27;12.43;;;11.00;1.00;;;;;;5034485;28;20096;-89
2022/09/02 00:55:45;;;;;;;14.55;13.10;;;10.90;1.00;;;;;;5024147;28;20353;-89
2022/09/02 00:58:35;;;;;;;14.40;12.63;;;11.00;1.00;;;;;;5027182;28;20050;-90
2022/09/02 01:01:23;;;;;;;17.58;13.10;;;11.10;18.10;;;;;;5031877;28;20053;-89
2022/09/02 01:04:11;;;;;;;14.73;12.88;;;11.30;31.10;;;;;;5038795;28;20365;-91
2022/09/02 01:06:58;;;;;;;17.05;12.05;;;11.30;4.40;;;;;;5032779;28;20353;-89
2022/09/02 01:09:46;;;;;;;16.20;12.00;;;11.30;1.00;;;;;;5023293;28;20078;-89
2022/09/02 01:12:36;;;;;;;14.23;11.63;;;11.20;1.00;;;;;;5025315;28;20061;-89
2022/09/02 01:15:25;;;;;;;13.35;11.75;;;11.00;1.00;;;;;;5024730;28;20135;-89
2022/09/02 01:18:17;;;;;;;13.88;12.27;;;11.00;1.00;;;;;;5032105;28;20037;-89
2022/09/02 01:21:06;;;;;;;15.52;12.35;;;11.00;1.00;;;;;;5032798;28;20045;-89
2022/09/02 01:23:54;;;;;;;16.50;12.23;;;10.90;1.00;;;;;;5020609;28;20042;-90
2022/09/02 01:26:42;;;;;;;14.93;12.48;;;10.90;1.00;;;;;;5033024;28;20054;-89
2022/09/02 01:29:30;;;;;;;18.80;12.23;;;10.80;1.00;;;;;;5020069;28;20370;-89
2022/09/02 01:32:21;;;;;;;14.48;12.45;;;10.70;1.00;;;;;;5023080;28;20464;-90
2022/09/02 01:35:09;;;;;;;15.30;12.05;;;10.60;1.00;;;;;;5029335;28;20049;-90
2022/09/02 01:37:58;;;;;;;18.98;13.05;;;10.60;39.60;;;;;;5017668;28;20450;-90
2022/09/02 01:40:48;;;;;;;17.10;13.60;;;10.50;93.20;;;;;;5030156;28;20421;-89
2022/09/02 01:43:35;;;;;;;17.77;13.43;;;10.50;99.90;;;;;;5017868;28;20079;-89
2022/09/02 01:46:26;;;;;;;14.85;12.80;;;10.40;99.90;;;;;;5010190;28;20366;-89
2022/09/02 01:49:13;;;;;;;17.42;14.10;;;10.30;99.90;;;;;;5019690;28;20049;-89
2022/09/02 01:52:00;;;;;;;16.67;13.93;;;10.30;99.90;;;;;;5019183;28;20083;-89
2022/09/02 01:54:50;;;;;;;17.58;14.35;;;10.30;99.90;;;;;;5026261;28;20044;-90
2022/09/02 01:57:38;;;;;;;18.35;14.75;;;10.40;99.90;;;;;;5019551;28;20446;-89
2022/09/02 02:00:26;;;;;;;19.45;14.43;;;10.60;1.00;;;;;;5027203;28;20057;-89
2022/09/02 02:03:16;;;;;;;18.75;14.77;;;10.80;1.00;;;;;;5030978;28;20484;-89
2022/09/02 02:06:11;;;;;;;20.40;15.65;;;10.90;1.00;;;;;;5018149;28;20400;-89
2022/09/02 02:08:58;;;;;;;18.17;13.60;;;10.80;1.00;;;;;;5033553;28;20056;-88
2022/09/02 02:11:47;;;;;;;18.30;14.43;;;10.80;1.00;;;;;;5033607;28;20430;-89
2022/09/02 02:14:37;;;;;;;17.98;12.88;;;10.90;1.00;;;;;;5020943;28;20064;-90
2022/09/02 02:17:25;;;;;;;18.20;13.68;;;10.90;99.90;;;;;;5033543;28;20057;-90
2022/09/02 02:20:16;;;;;;;15.73;12.45;;;10.90;99.90;;;;;;5014921;28;20057;-86
2022/09/02 02:23:05;;;;;;;15.13;12.38;;;10.90;99.90;;;;;;5027873;28;20057;-89
2022/09/02 02:25:54;;;;;;;14.57;13.07;;;10.90;99.90;;;;;;5004449;28;20050;-89
2022/09/02 02:28:45;;;;;;;13.88;12.43;;;10.70;99.90;;;;;;5020752;28;20133;-88
2022/09/02 02:31:32;;;;;;;17.55;12.27;;;10.60;99.90;;;;;;5014634;28;20115;-89
2022/09/02 02:34:19;;;;;;;23.98;13.10;;;10.70;99.90;;;;;;5014878;28;20457;-90
2022/09/02 02:37:07;;;;;;;17.05;12.93;;;10.70;99.90;;;;;;5026842;28;20133;-89
2022/09/02 02:39:55;;;;;;;14.40;12.18;;;10.70;99.90;;;;;;5029390;28;20071;-90
2022/09/02 02:42:42;;;;;;;14.05;12.18;;;10.60;99.90;;;;;;5005895;28;20108;-88
2022/09/02 02:45:31;;;;;;;14.73;12.25;;;10.50;99.90;;;;;;5028344;28;20049;-91
2022/09/02 02:48:18;;;;;;;16.38;12.57;;;10.50;99.90;;;;;;5028542;28;20045;-91
2022/09/02 02:51:06;;;;;;;18.42;12.57;;;10.40;99.90;;;;;;5015740;28;20127;-89
2022/09/02 02:53:54;;;;;;;21.25;13.48;;;10.40;99.90;;;;;;5021286;28;20412;-90
2022/09/02 02:56:49;;;;;;;14.48;12.68;;;10.30;99.90;;;;;;5023095;28;20388;-90
2022/09/02 02:59:37;;;;;;;16.42;13.55;;;10.30;99.90;;;;;;5013604;28;20053;-89
2022/09/02 03:02:24;;;;;;;14.55;12.30;;;10.30;99.90;;;;;;5022753;28;20041;-89
2022/09/02 03:05:13;;;;;;;15.05;12.60;;;10.20;99.90;;;;;;5032728;28;20145;-89
2022/09/02 03:08:09;;;;;;;18.25;12.60;;;10.30;99.90;;;;;;5003659;28;20056;-89
2022/09/02 03:10:56;;;;;;;18.15;12.93;;;10.30;99.90;;;;;;5028634;28;20045;-90
2022/09/02 03:13:44;;;;;;;14.40;12.73;;;10.10;99.90;;;;;;5027198;28;20048;-90
2022/09/02 03:16:35;;;;;;;13.68;12.13;;;10.00;99.90;;;;;;5025238;28;20441;-89
2022/09/02 03:19:22;;;;;;;16.10;11.85;;;9.90;99.90;;;;;;5035658;28;20073;-92
2022/09/02 03:22:12;;;;;;;18.23;12.20;;;9.80;99.90;;;;;;5021333;28;20120;-90
2022/09/02 03:24:59;;;;;;;14.43;11.82;;;9.70;99.90;;;;;;5021115;28;20133;-91
2022/09/02 03:27:47;;;;;;;15.43;12.27;;;9.60;99.90;;;;;;5021141;28;20480;-90
2022/09/02 03:30:35;;;;;;;14.68;12.27;;;9.60;1.00;;;;;;5019619;28;20105;-90
2022/09/02 03:33:24;;;;;;;15.85;12.45;;;9.50;1.00;;;;;;5034165;28;20092;-91
2022/09/02 03:36:39;;;;;;;17.80;12.40;;;9.50;1.00;;;;;;5029418;28;20041;-92
2022/09/02 03:39:29;;;;;;;15.25;11.98;;;9.50;52.90;;;;;;5029720;28;20041;-91
2022/09/02 03:42:16;;;;;;;16.15;13.50;;;9.50;99.90;;;;;;5024349;28;20080;-90
2022/09/02 03:45:07;;;;;;;15.48;13.25;;;9.50;99.90;;;;;;5036305;28;20041;-91
2022/09/02 03:47:58;;;;;;;14.70;12.85;;;9.40;99.90;;;;;;5038347;28;20143;-90
2022/09/02 03:50:48;;;;;;;19.65;14.18;;;9.30;99.90;;;;;;5020151;28;20077;-91
2022/09/02 03:53:38;;;;;;;17.25;14.00;;;9.30;99.90;;;;;;5039467;28;20128;-90
2022/09/02 03:56:25;;;;;;;17.10;15.30;;;9.20;99.90;;;;;;5044736;28;20056;-90
2022/09/02 03:59:15;;;;;;;17.52;13.85;;;9.20;1.00;;;;;;5046821;28;20060;-89
2022/09/02 04:06:12;;;;;;;20.95;13.88;;;9.10;22.60;;;;;;5035859;28;20033;-88
2022/09/02 04:09:00;;;;;;;18.75;14.68;;;9.00;99.90;;;;;;5031293;28;20050;-89
2022/09/02 04:11:48;;;;;;;17.95;14.55;;;9.00;99.90;;;;;;5029726;28;20103;-89
2022/09/02 04:14:35;;;;;;;20.27;13.40;;;8.90;99.90;;;;;;5038454;28;20108;-88
2022/09/02 04:21:09;;;;;;;17.92;14.50;;;8.90;99.90;;;;;;5038337;28;20112;-89
2022/09/02 04:23:59;;;;;;;18.13;14.68;;;8.90;99.90;;;;;;5035682;28;20042;-89
2022/09/02 04:26:52;;;;;;;20.42;15.00;;;8.90;99.90;;;;;;5035325;28;20445;-89
2022/09/02 04:29:39;;;;;;;17.02;14.95;;;9.10;15.20;;;;;;5030215;28;20076;-89
2022/09/02 04:32:26;;;;;;;19.42;16.17;;;9.10;99.90;;;;;;5043475;28;20143;-91
2022/09/02 04:35:13;;;;;;;17.40;15.48;;;9.10;1.00;;;;;;5035606;28;20140;-90
2022/09/02 04:38:03;;;;;;;22.90;16.30;;;9.00;1.00;;;;;;5043226;28;20045;-90
2022/09/02 04:40:50;;;;;;;18.25;15.65;;;9.00;8.20;;;;;;5048209;28;20057;-90
2022/09/02 04:43:38;;;;;;;20.08;15.70;;;9.00;99.90;;;;;;5039588;28;20448;-91
2022/09/02 04:46:26;;;;;;;19.38;16.38;;;9.10;99.90;;;;;;5036562;28;20068;-91
2022/09/02 04:49:23;;;;;;;25.02;16.65;;;9.10;99.90;;;;;;5028474;28;20433;-90
2022/09/02 04:52:12;;;;;;;21.10;15.02;;;9.00;99.90;;;;;;5035116;28;20164;-90
2022/09/02 04:55:02;;;;;;;20.70;16.92;;;9.10;1.00;;;;;;5030290;28;20464;-87
2022/09/02 04:57:50;;;;;;;21.25;17.33;;;9.10;99.90;;;;;;5040646;28;20052;-88
2022/09/02 05:00:39;;;;;;;19.58;16.67;;;9.20;99.90;;;;;;5027201;28;20046;-90
2022/09/02 05:03:29;;;;;;;24.50;18.30;;;9.40;1.00;;;;;;5028447;28;20057;-88
2022/09/02 05:06:21;;;;;;;25.08;18.55;;;9.50;99.90;;;;;;5021676;28;20085;-88
2022/09/02 05:09:08;;;;;;;18.70;16.70;;;9.50;99.90;;;;;;5019349;28;20100;-88
2022/09/02 05:11:57;;;;;;;22.90;16.98;;;9.60;99.90;;;;;;5033701;28;20460;-87
2022/09/02 05:14:44;;;;;;;19.17;16.25;;;9.50;99.90;;;;;;5022096;28;20061;-85
2022/09/02 05:17:31;;;;;;;18.90;15.45;;;9.50;1.00;;;;;;5032486;28;20049;-84
2022/09/02 05:20:22;;;;;;;16.60;14.70;;;9.60;99.90;;;;;;5034005;28;20037;-85
2022/09/02 05:23:21;;;;;;;18.02;14.82;;;9.70;99.90;;;;;;5010890;28;20404;-85
2022/09/02 05:26:11;;;;;;;14.60;13.10;;;9.80;99.90;;;;;;5032868;28;20045;-85
2022/09/02 05:29:01;;;;;;;17.85;13.73;;;9.90;1.00;;;;;;5029027;28;20049;-84
2022/09/02 05:31:48;;;;;;;14.50;12.65;;;10.00;99.90;;;;;;5030672;28;20448;-84
2022/09/02 05:34:36;;;;;;;13.18;11.60;;;10.20;1.00;;;;;;5031178;28;20049;-91
2022/09/02 05:37:26;;;;;;;13.40;10.50;;;10.30;99.90;;;;;;5030261;28;20060;-87
2022/09/02 05:40:15;;;;;;;10.95;9.70;;;10.40;1.00;;;;;;5025633;28;20081;-89
2022/09/02 05:43:12;;;;;;;10.48;9.20;;;10.50;99.90;;;;;;5016514;28;20042;-85
2022/09/02 05:46:13;;;;;;;13.63;9.73;;;10.60;99.90;;;;;;5021998;28;20056;-85
2022/09/02 05:49:05;;;;;;;13.70;8.95;;;10.60;52.50;;;;;;5024672;28;20049;-85
2022/09/02 05:52:23;;;;;;;12.80;8.15;;;10.80;1.00;;;;;;5012896;28;20049;-90
2022/09/02 05:55:11;;;;;;;9.68;8.68;;;10.80;99.90;;;;;;5022960;28;20045;-84
2022/09/02 05:58:00;;;;;;;11.85;8.15;;;10.90;99.90;;;;;;5023886;28;20045;-85
2022/09/02 06:00:47;;;;;;;11.77;7.85;;;11.00;99.90;;;;;;5024822;28;20468;-87
2022/09/02 06:03:36;;;;;;;11.35;8.77;;;11.10;4.90;;;;;;5033006;28;20049;-87
2022/09/02 06:06:27;;;;;;;8.05;7.25;;;11.10;1.00;;;;;;5025235;28;20068;-84
2022/09/02 06:09:20;;;;;;;8.93;7.38;;;11.20;1.00;;;;;;5018341;28;20064;-86
2022/09/02 06:12:10;;;;;;;16.17;7.05;;;11.40;99.90;;;;;;5032477;28;20560;-85
2022/09/02 06:14:57;;;;;;;7.32;6.30;;;11.50;99.90;;;;;;5023097;28;20459;-84
2022/09/02 06:17:44;;;;;;;7.78;6.18;;;11.60;99.90;;;;;;5016613;28;20053;-86
2022/09/02 06:20:31;;;;;;;8.95;7.03;;;11.70;99.90;;;;;;5019564;28;20060;-87
2022/09/02 06:23:20;;;;;;;9.15;6.28;;;11.80;99.90;;;;;;5012244;28;20034;-85
2022/09/02 06:26:09;;;;;;;6.50;5.90;;;11.90;47.50;;;;;;5018671;28;20052;-85
2022/09/02 06:28:56;;;;;;;8.15;5.60;;;12.00;13.20;;;;;;5019074;28;20128;-85
2022/09/02 06:31:48;;;;;;;6.57;5.50;;;12.20;1.00;;;;;;5037070;28;20057;-85
2022/09/02 06:34:38;;;;;;;7.38;5.43;;;12.30;1.00;;;;;;5025474;28;20096;-86
2022/09/02 06:37:25;;;;;;;7.13;5.68;;;12.40;1.00;;;;;;5035344;28;20050;-86
2022/09/02 06:40:13;;;;;;;10.00;5.93;;;12.40;1.00;;;;;;5018694;28;20424;-86
2022/09/02 06:43:01;;;;;;;6.32;5.03;;;12.60;1.00;;;;;;5036018;28;20057;-86
2022/09/02 06:45:48;;;;;;;4.93;4.43;;;12.80;1.00;;;;;;5020530;28;20049;-87
2022/09/02 06:48:36;;;;;;;7.30;4.95;;;13.10;1.00;;;;;;5025645;28;20149;-84
2022/09/02 06:51:33;;;;;;;6.43;4.60;;;13.30;1.00;;;;;;5036581;28;20045;-88
2022/09/02 06:54:22;;;;;;;7.55;3.92;;;13.50;99.90;;;;;;5016888;28;20477;-86
2022/09/02 06:57:13;;;;;;;5.38;4.13;;;13.50;99.90;;;;;;5022290;28;20061;-85
2022/09/02 07:00:02;;;;;;;4.40;4.00;;;13.80;99.90;;;;;;5012301;28;20484;-86
2022/09/02 07:05:08;;;;;;;5.00;4.13;;;14.00;99.90;;;;;;5019353;28;20041;-86
2022/09/02 07:06:03;;;;;;;8.35;3.42;;;14.30;99.90;;;;;;5036754;28;20045;-86
2022/09/02 07:08:50;;;;;;;5.30;3.40;;;14.60;99.90;;;;;;5044316;28;20045;-84
2022/09/02 07:11:40;;;;;;;6.10;3.35;;;14.80;99.90;;;;;;5017568;28;20054;-86
2022/09/02 07:14:27;;;;;;;5.20;3.83;;;15.10;99.90;;;;;;5030066;28;20180;-86
2022/09/02 07:17:20;;;;;;;6.47;2.78;;;15.10;99.90;;;;;;5025188;28;20068;-85
2022/09/02 07:20:08;;;;;;;3.35;2.97;;;15.30;99.90;;;;;;5032099;28;20041;-84
2022/09/02 07:22:55;;;;;;;7.05;3.55;;;15.50;99.90;;;;;;5032480;28;20132;-83
2022/09/02 07:25:43;;;;;;;5.15;3.00;;;15.50;99.90;;;;;;5020739;28;20228;-84
2022/09/02 07:28:30;;;;;;;7.40;3.20;;;15.60;99.90;;;;;;5028703;28;20051;-85
2022/09/02 07:31:18;;;;;;;5.60;2.70;;;15.70;99.90;;;;;;5030902;28;20041;-86
2022/09/02 07:34:07;;;;;;;6.85;2.97;;;15.90;99.90;;;;;;5040152;28;20136;-84
2022/09/02 07:36:54;;;;;;;11.85;2.97;;;15.80;99.90;;;;;;5034246;28;20100;-84
2022/09/02 07:39:48;;;;;;;6.07;3.22;;;15.80;99.90;;;;;;5030212;28;20044;-84
2022/09/02 07:42:36;;;;;;;4.05;2.60;;;16.00;99.90;;;;;;5035060;28;20109;-83
2022/09/02 07:45:23;;;;;;;3.28;2.65;;;16.30;99.90;;;;;;5053256;28;20029;-83
2022/09/02 07:48:11;;;;;;;3.28;2.33;;;16.60;99.90;;;;;;5042643;28;20026;-83
2022/09/02 07:50:58;;;;;;;5.43;3.00;;;16.90;99.90;;;;;;5044842;28;20045;-83
2022/09/02 07:53:45;;;;;;;7.47;3.08;;;16.90;99.90;;;;;;5054765;28;20052;-85
2022/09/02 07:56:33;;;;;;;6.25;2.92;;;17.10;99.90;;;;;;5048956;28;20506;-85
2022/09/02 07:59:21;;;;;;;3.65;2.40;;;17.30;99.90;;;;;;5015669;28;20061;-83
2022/09/02 08:02:08;;;;;;;4.13;2.20;;;17.40;99.90;;;;;;5034871;28;20048;-84
2022/09/02 08:05:02;;;;;;;6.45;2.53;;;17.80;99.90;;;;;;5050008;28;20060;-84
2022/09/02 08:07:49;;;;;;;6.05;2.65;;;18.10;99.90;;;;;;5046169;28;20046;-85
2022/09/02 08:10:39;;;;;;;2.17;1.88;;;18.30;89.10;;;;;;5018540;28;20060;-87
2022/09/02 08:13:26;;;;;;;2.47;2.03;;;18.90;81.50;;;;;;5023518;28;20056;-83
2022/09/02 08:16:15;;;;;;;2.92;1.92;;;19.90;55.10;;;;;;5041502;28;20073;-85
2022/09/02 08:19:02;;;;;;;4.88;2.25;;;20.70;38.20;;;;;;5018998;28;20046;-85
2022/09/02 08:21:50;;;;;;;5.88;2.00;;;21.10;15.20;;;;;;5036031;28;20047;-84
2022/09/02 08:24:37;;;;;;;2.60;1.90;;;21.40;12.60;;;;;;5029550;28;20060;-83
2022/09/02 08:27:30;;;;;;;3.15;1.70;;;21.50;1.00;;;;;;5018508;28;20041;-84
2022/09/02 08:30:18;;;;;;;5.05;2.28;;;21.30;1.00;;;;;;5017835;28;20460;-84
2022/09/02 08:33:05;;;;;;;3.50;1.70;;;21.60;1.00;;;;;;5018318;28;20056;-90
2022/09/02 08:35:57;;;;;;;3.50;1.77;;;21.90;1.00;;;;;;5033723;28;20325;-86
2022/09/02 08:38:44;;;;;;;4.60;1.95;;;22.10;1.00;;;;;;5037827;28;20055;-86
2022/09/02 08:42:03;;;;;;;3.17;1.80;;;21.70;1.00;;;;;;5020150;28;20045;-90
2022/09/02 08:44:56;;;;;;;3.60;1.67;;;21.80;1.00;;;;;;5019286;28;20042;-87
2022/09/02 08:47:50;;;;;;;3.35;1.80;;;22.50;1.00;;;;;;5003956;28;20041;-87
2022/09/02 08:50:43;;;;;;;2.88;1.60;;;23.40;1.00;;;;;;5018168;28;20132;-87
2022/09/02 08:53:50;;;;;;;2.78;1.85;;;24.00;1.00;;;;;;5007530;28;20060;-85
2022/09/02 08:56:37;;;;;;;3.63;1.73;;;23.90;1.00;;;;;;5031051;28;20045;-85
2022/09/02 08:59:30;;;;;;;2.22;1.65;;;23.90;1.00;;;;;;5023339;28;20077;-87
2022/09/02 09:02:40;;;;;;;7.22;2.08;;;24.30;1.00;;;;;;5032900;28;20037;-86
2022/09/02 09:06:10;;;;;;;5.40;1.67;;;24.10;1.00;;;;;;5031660;28;20045;-87
2022/09/02 09:09:05;;;;;;;3.70;1.73;;;23.40;1.00;;;;;;5024544;28;20116;-84
2022/09/02 09:12:01;;;;;;;;;;;23.80;1.00;;;;;;5030077;28;20112;-85
2022/09/02 09:15:01;;;;;;;3.95;1.40;;;23.70;1.00;;;;;;5029709;28;19995;-86
2022/09/02 09:18:01;;;;;;;5.85;1.95;;;23.70;1.00;;;;;;5016381;28;20481;-86
2022/09/02 09:20:49;;;;;;;3.20;1.40;;;23.90;1.00;;;;;;5030042;28;20052;-86
2022/09/02 09:23:39;;;;;;;4.18;1.40;;;23.90;1.00;;;;;;5017157;28;20133;-87
2022/09/02 09:26:31;;;;;;;1.85;1.40;;;24.70;1.00;;;;;;5013924;28;20392;-89
2022/09/02 09:29:18;;;;;;;3.75;1.40;;;24.30;1.00;;;;;;5031818;28;20053;-91
2022/09/02 09:32:18;;;;;;;2.33;1.40;;;24.70;1.00;;;;;;5019729;28;20093;-90
2022/09/02 09:35:14;;;;;;;2.40;1.42;;;25.20;1.00;;;;;;5032961;28;20046;-86
2022/09/02 09:38:11;;;;;;;5.28;1.25;;;25.50;1.00;;;;;;5046669;28;20034;-88
2022/09/02 09:41:14;;;;;;;3.40;1.30;;;25.70;1.00;;;;;;5045646;28;20053;-91
2022/09/02 09:44:01;;;;;;;4.78;1.60;;;25.10;1.00;;;;;;5047490;28;20099;-92
2022/09/02 09:47:03;;;;;;;3.05;1.13;;;24.80;1.00;;;;;;5030015;28;20107;-89
2022/09/02 09:50:11;;;;;;;3.57;1.50;;;25.60;1.00;;;;;;5031825;28;20038;-82
2022/09/02 09:53:23;;;;;;;3.90;1.20;;;26.00;1.00;;;;;;5041447;28;20025;-84
2022/09/02 09:56:14;;;;;;;3.88;1.20;;;26.80;1.00;;;;;;5047630;28;20025;-84
2022/09/02 09:59:05;;;;;;;2.35;1.33;;;27.70;1.00;;;;;;5055466;28;20099;-85
2022/09/02 10:01:52;;;;;;;1.15;1.05;;;27.00;1.00;;;;;;5056560;28;20026;-86
2022/09/02 10:04:39;;;;;;;2.13;1.00;;;26.20;1.00;;;;;;5048142;28;20068;-88
2022/09/02 10:07:38;;;;;;;1.55;1.13;;;26.30;1.00;;;;;;5055765;28;20040;-88
2022/09/02 10:10:27;;;;;;;2.47;0.90;;;26.90;1.00;;;;;;5034114;28;20026;-86
2022/09/02 10:13:36;;;;;;;2.92;1.50;;;27.20;1.00;;;;;;5039579;28;20029;-83
2022/09/02 10:16:34;;;;;;;3.33;1.10;;;26.20;1.00;;;;;;5042223;28;20187;-85
2022/09/02 10:19:25;;;;;;;1.48;1.00;;;26.00;1.00;;;;;;5036568;28;20125;-84
2022/09/02 10:22:15;;;;;;;1.52;1.00;;;26.30;1.00;;;;;;5035455;28;20038;-87
2022/09/02 10:25:46;;;;;;;2.67;0.88;;;26.50;1.00;;;;;;5039874;28;20131;-86
2022/09/02 10:28:52;;;;;;;3.42;0.82;;;27.10;1.00;;;;;;5028930;28;20061;-83
2022/09/02 10:32:01;;;;;;;2.50;0.93;;;27.20;1.00;;;;;;5032666;28;20049;-88
2022/09/02 10:34:59;;;;;;;1.40;0.82;;;27.40;1.00;;;;;;5031416;28;20116;-85
2022/09/02 10:38:05;;;;;;;2.95;1.00;;;27.00;1.00;;;;;;5028607;28;20045;-91
2022/09/02 10:41:09;;;;;;;3.88;0.90;;;27.10;1.00;;;;;;5029684;28;20114;-86
2022/09/02 10:44:22;;;;;;;1.52;0.80;;;27.60;1.00;;;;;;5011357;28;20057;-87
2022/09/02 10:47:37;;;;;;;1.65;1.05;;;28.20;1.00;;;;;;5009538;28;20475;-85
2022/09/02 10:50:52;;;;;;;1.48;0.70;;;27.50;1.00;;;;;;5025217;28;20120;-85
2022/09/02 10:53:58;;;;;;;1.15;0.77;;;28.30;1.00;;;;;;5014995;28;20046;-86
2022/09/02 10:56:59;;;;;;;1.85;0.90;;;28.20;1.00;;;;;;5027019;28;20045;-84
2022/09/02 11:00:13;;;;;;;2.00;1.00;;;28.60;1.00;;;;;;5031802;28;20065;-87
2022/09/02 11:03:09;;;;;;;2.50;0.80;;;29.30;1.00;;;;;;5011638;28;20042;-88
2022/09/02 11:06:08;;;;;;;4.68;0.95;;;28.60;1.00;;;;;;5009929;28;20132;-87
2022/09/02 11:09:02;;;;;;;4.70;1.00;;;27.60;1.00;;;;;;5030723;28;20052;-88
2022/09/02 11:12:14;;;;;;;3.20;0.90;;;27.80;1.00;;;;;;5006442;28;20058;-89
2022/09/02 11:15:14;;;;;;;1.75;1.00;;;27.80;1.00;;;;;;5036861;28;20077;-85
2022/09/02 11:18:27;;;;;;;2.78;0.93;;;27.50;1.00;;;;;;5032167;28;20041;-86
2022/09/02 11:21:34;;;;;;;1.70;0.90;;;27.00;1.00;;;;;;5035259;28;20056;-89
2022/09/02 11:24:39;;;;;;;3.72;0.90;;;27.50;1.00;;;;;;5032892;28;20060;-88
2022/09/02 11:27:51;;;;;;;4.80;0.80;;;28.00;1.00;;;;;;5017397;28;20053;-87
2022/09/02 11:30:52;;;;;;;2.47;1.00;;;28.50;1.00;;;;;;5030829;28;20058;-91
2022/09/02 11:34:02;;;;;;;1.63;0.70;;;28.50;1.00;;;;;;5027506;28;20049;-88
2022/09/02 11:36:50;;;;;;;2.58;0.93;;;29.00;1.00;;;;;;5040654;28;20037;-87
2022/09/02 11:39:50;;;;;;;2.58;0.80;;;29.30;1.00;;;;;;5041927;28;20069;-88
2022/09/02 11:43:07;;;;;;;2.13;0.95;;;29.50;1.00;;;;;;5039980;28;20050;-86
2022/09/02 11:46:12;;;;;;;1.20;0.70;;;29.80;1.00;;;;;;5038066;28;20046;-87
2022/09/02 11:49:29;;;;;;;2.50;0.85;;;28.80;1.00;;;;;;5050876;28;20059;-89
2022/09/02 11:52:35;;;;;;;2.45;0.75;;;29.10;1.00;;;;;;5024740;28;20587;-86
2022/09/02 11:55:30;;;;;;;0.75;0.73;;;29.50;1.00;;;;;;5020833;28;20160;-88
2022/09/02 11:58:37;;;;;;;2.60;1.00;;;30.10;1.00;;;;;;5034442;28;20145;-87
2022/09/02 12:01:34;;;;;;;1.73;0.98;;;29.50;1.00;;;;;;5032714;28;20041;-87
2022/09/02 12:04:29;;;;;;;1.92;1.02;;;29.90;1.00;;;;;;5016948;28;20463;-84
2022/09/02 12:07:48;;;;;;;1.80;1.00;;;30.30;1.00;;;;;;5032077;28;20139;-86
2022/09/02 12:10:58;;;;;;;6.53;1.05;;;29.80;1.00;;;;;;5030768;28;20048;-84
2022/09/02 12:13:47;;;;;;;3.63;0.90;;;29.20;1.00;;;;;;5024874;28;20046;-85
2022/09/02 12:16:39;;;;;;;1.73;0.90;;;29.90;1.00;;;;;;5016208;28;20466;-87
2022/09/02 12:19:41;;;;;;;3.60;1.20;;;30.60;1.00;;;;;;5023296;28;20052;-85
2022/09/02 12:22:37;;;;;;;2.50;0.93;;;31.00;1.00;;;;;;5035009;28;20049;-89
2022/09/02 12:25:27;;;;;;;4.93;0.90;;;31.20;1.00;;;;;;5017190;28;20053;-86
2022/09/02 12:28:16;;;;;;;1.00;0.85;;;31.90;1.00;;;;;;5027131;28;20059;-87
2022/09/02 12:31:11;;;;;;;1.70;0.85;;;31.70;1.00;;;;;;5016457;28;20053;-86
2022/09/02 12:34:01;;;;;;;1.05;0.90;;;30.80;1.00;;;;;;5029927;28;20041;-85
2022/09/02 12:37:01;;;;;;;1.13;0.88;;;30.20;1.00;;;;;;5029757;28;20100;-85
2022/09/02 12:39:53;;;;;;;1.20;1.00;;;31.40;1.00;;;;;;5013920;28;20052;-83
2022/09/02 12:42:43;;;;;;;3.33;1.17;;;32.00;1.00;;;;;;5020685;28;20045;-85
2022/09/02 12:45:44;;;;;;;2.92;0.90;;;30.30;1.00;;;;;;5019538;28;20468;-84
2022/09/02 12:48:41;;;;;;;2.05;0.95;;;29.90;1.00;;;;;;5014662;28;20050;-85
2022/09/02 12:52:07;;;;;;;3.20;1.05;;;30.80;1.00;;;;;;5030464;28;20068;-86
2022/09/02 12:54:55;;;;;;;3.17;1.00;;;31.10;1.00;;;;;;4922203;29;20047;-85
2022/09/02 12:57:45;;;;;;;1.48;0.90;;;30.90;1.00;;;;;;5011557;28;20420;-85
2022/09/02 13:01:05;;;;;;;2.47;1.00;;;30.90;1.00;;;;;;5031623;28;20193;-86
2022/09/02 13:04:08;;;;;;;2.00;0.85;;;30.70;1.00;;;;;;5029168;28;20037;-85
2022/09/02 13:07:01;;;;;;;1.75;0.95;;;31.10;1.00;;;;;;5017139;28;20048;-87
2022/09/02 13:10:09;;;;;;;3.92;0.80;;;31.40;1.00;;;;;;5026088;28;20196;-89
2022/09/02 13:13:38;;;;;;;1.10;0.90;;;32.00;1.00;;;;;;5028560;28;20057;-87
2022/09/02 13:16:53;;;;;;;1.80;1.10;;;32.20;1.00;;;;;;4966293;28;20060;-89
2022/09/02 13:20:21;;;;;;;4.32;1.13;;;31.50;1.00;;;;;;5033401;28;20361;-86
2022/09/02 13:23:52;;;;;;;2.10;1.02;;;30.80;1.00;;;;;;5030954;28;20045;-86
2022/09/02 13:27:12;;;;;;;1.33;1.15;;;31.10;1.00;;;;;;5030041;28;20104;-89
2022/09/02 13:30:18;;;;;;;2.72;0.90;;;30.30;1.00;;;;;;5023162;28;20041;-89
2022/09/02 13:33:11;;;;;;;3.33;1.10;;;30.60;1.00;;;;;;5035912;28;20361;-87
2022/09/02 13:35:59;;;;;;;3.40;1.20;;;31.40;1.00;;;;;;5023209;28;20405;-86
2022/09/02 13:38:46;;;;;;;5.22;1.20;;;31.30;1.00;;;;;;5031436;28;20474;-85
2022/09/02 13:41:36;;;;;;;3.33;0.98;;;30.40;1.00;;;;;;5029855;28;20051;-88
2022/09/02 13:44:25;;;;;;;2.40;1.50;;;30.80;1.00;;;;;;5033294;28;20128;-87
2022/09/02 13:47:18;;;;;;;1.85;1.00;;;30.20;1.00;;;;;;5013810;28;20092;-86
2022/09/02 13:50:07;;;;;;;3.38;1.17;;;30.90;1.00;;;;;;5018770;28;20125;-85
2022/09/02 13:52:59;;;;;;;2.80;1.00;;;31.60;1.00;;;;;;5034420;28;20072;-86
2022/09/02 13:56:11;;;;;;;1.98;0.95;;;31.60;1.00;;;;;;5018737;28;20095;-85
2022/09/02 13:58:58;;;;;;;;;;;32.70;1.00;;;;;;5019747;28;20045;-88
2022/09/02 14:01:45;;;;;;;3.72;0.85;;;32.00;1.00;;;;;;5025230;28;19957;-88
2022/09/02 14:04:35;;;;;;;1.60;1.10;;;31.70;1.00;;;;;;5033553;28;20054;-86
2022/09/02 14:07:34;;;;;;;1.83;1.27;;;30.70;1.00;;;;;;5037821;28;20057;-86
2022/09/02 14:10:31;;;;;;;1.40;0.98;;;31.40;1.00;;;;;;5027505;28;20405;-90
2022/09/02 14:13:19;;;;;;;1.38;0.90;;;32.00;1.00;;;;;;5007585;28;20115;-86
2022/09/02 14:16:27;;;;;;;1.80;0.80;;;32.10;1.00;;;;;;5011122;28;20053;-85
2022/09/02 14:19:21;;;;;;;2.13;0.75;;;32.20;1.00;;;;;;5032616;28;20041;-85
2022/09/02 14:22:22;;;;;;;2.20;1.00;;;31.60;1.00;;;;;;5032181;28;20060;-88
2022/09/02 14:25:16;;;;;;;2.88;1.00;;;31.40;1.00;;;;;;5019890;28;20492;-88
2022/09/02 14:28:20;;;;;;;2.28;1.25;;;31.30;1.00;;;;;;5016378;28;20041;-85
2022/09/02 14:31:21;;;;;;;2.05;0.80;;;31.10;1.00;;;;;;5033437;28;20057;-86
2022/09/02 14:34:32;;;;;;;2.63;1.00;;;30.80;1.00;;;;;;5031094;28;20049;-86
2022/09/02 14:37:30;;;;;;;2.67;1.00;;;30.70;1.00;;;;;;5024624;28;20057;-85
2022/09/02 14:40:29;;;;;;;1.55;1.00;;;31.00;1.00;;;;;;5027789;28;20356;-87
2022/09/02 14:43:16;;;;;;;5.90;0.95;;;31.30;1.00;;;;;;5004365;28;20049;-88
2022/09/02 14:46:08;;;;;;;2.00;0.90;;;32.00;1.00;;;;;;5014544;28;20046;-89
2022/09/02 14:48:57;;;;;;;1.67;0.80;;;32.50;1.00;;;;;;5039374;28;20128;-91
2022/09/02 14:51:48;;;;;;;1.35;0.95;;;32.20;1.00;;;;;;5026424;28;20163;-88
2022/09/02 14:54:48;;;;;;;2.95;1.15;;;30.90;1.00;;;;;;5036912;28;20119;-90
2022/09/02 14:57:37;;;;;;;0.80;0.80;;;30.10;1.00;;;;;;5024462;28;20441;-85
2022/09/02 15:00:25;;;;;;;2.45;1.20;;;29.70;1.00;;;;;;5036292;28;20037;-91
2022/09/02 15:03:15;;;;;;;1.40;0.70;;;29.60;1.00;;;;;;5012019;28;20388;-90
2022/09/02 15:06:04;;;;;;;4.20;0.98;;;29.30;1.00;;;;;;5036385;28;20495;-90
2022/09/02 15:08:53;;;;;;;2.70;1.55;;;30.10;1.00;;;;;;5032714;28;20097;-89
2022/09/02 15:11:46;;;;;;;3.55;0.82;;;30.30;1.00;;;;;;5022258;28;20046;-90
2022/09/02 15:14:33;;;;;;;1.25;0.90;;;29.20;1.00;;;;;;5029619;28;20715;-91